Time;durP1;ratioP1;P1;durP2;ratioP2;P2;SDS_P1;SDS_P2;PMS_P1;PMS_P2;Temp;Humidity;BMP_temperature;BMP_pressure;BME280_temperature;BME280_humidity;BME280_pressure;Samples;Min_cycle;Max_cycle;Signal;HPM_P1;HPM_P2
2022/12/20 00:02:04;;;;;;;5.65;2.50;;;11.20;99.90;;;;;;4987569;28;20055;-81
2022/12/20 00:04:32;;;;;;;7.57;2.65;;;11.30;99.90;;;;;;4970724;28;20089;-81
2022/12/20 00:06:59;;;;;;;4.95;2.80;;;11.30;99.90;;;;;;4970299;28;20042;-81
2022/12/20 00:09:26;;;;;;;4.65;2.53;;;11.30;99.90;;;;;;4970724;28;20050;-81
2022/12/20 00:11:53;;;;;;;5.55;2.58;;;11.30;99.90;;;;;;4969869;28;20049;-82
2022/12/20 00:14:20;;;;;;;5.85;2.50;;;11.30;99.90;;;;;;4967961;28;20062;-84
2022/12/20 00:16:50;;;;;;;5.32;2.80;;;11.30;99.90;;;;;;4974459;28;20050;-84
2022/12/20 00:19:17;;;;;;;3.92;2.00;;;11.30;99.90;;;;;;4990115;28;20407;-84
2022/12/20 00:21:45;;;;;;;4.18;2.20;;;11.30;99.90;;;;;;4976151;28;20121;-84
2022/12/20 00:24:12;;;;;;;6.88;2.40;;;11.40;99.90;;;;;;4969833;28;20054;-84
2022/12/20 00:26:39;;;;;;;6.05;2.42;;;11.40;99.90;;;;;;4965942;28;20054;-84
2022/12/20 00:29:06;;;;;;;6.43;2.47;;;11.40;99.90;;;;;;4976082;28;20415;-83
2022/12/20 00:31:34;;;;;;;5.05;2.47;;;11.40;99.90;;;;;;4974356;28;20066;-84
2022/12/20 00:34:01;;;;;;;12.10;2.72;;;11.40;99.90;;;;;;4969142;28;20042;-84
2022/12/20 00:36:30;;;;;;;6.43;2.60;;;11.40;99.90;;;;;;4968085;28;20083;-84
2022/12/20 00:39:00;;;;;;;4.25;2.03;;;11.40;99.90;;;;;;4966675;28;20147;-84
2022/12/20 00:41:29;;;;;;;6.30;2.05;;;11.40;99.90;;;;;;4978367;28;20459;-83
2022/12/20 00:43:57;;;;;;;5.25;2.17;;;11.40;99.90;;;;;;5004743;28;20105;-84
2022/12/20 00:46:24;;;;;;;4.32;2.08;;;11.40;99.90;;;;;;4971709;28;20562;-83
2022/12/20 00:48:52;;;;;;;4.13;2.00;;;11.40;99.90;;;;;;4966867;28;20125;-83
2022/12/20 00:51:22;;;;;;;5.82;2.35;;;11.40;99.90;;;;;;4968029;28;20054;-84
2022/12/20 00:53:49;;;;;;;6.18;2.25;;;11.50;99.90;;;;;;4978788;28;20692;-84
2022/12/20 00:56:18;;;;;;;5.50;2.00;;;11.40;99.90;;;;;;4976918;28;20046;-84
2022/12/20 00:58:45;;;;;;;5.47;2.30;;;11.40;99.90;;;;;;4969791;28;20403;-84
2022/12/20 01:01:18;;;;;;;7.43;2.60;;;11.40;99.90;;;;;;4968594;28;20055;-84
2022/12/20 01:03:45;;;;;;;7.15;2.50;;;11.40;99.90;;;;;;4975079;28;20053;-84
2022/12/20 01:06:13;;;;;;;5.60;2.17;;;11.40;99.90;;;;;;4965199;28;20053;-84
2022/12/20 01:08:41;;;;;;;6.05;2.47;;;11.40;99.90;;;;;;4966374;28;20137;-84
2022/12/20 01:11:09;;;;;;;4.13;2.17;;;11.40;99.90;;;;;;4967720;28;20628;-83
2022/12/20 01:13:39;;;;;;;5.20;2.45;;;11.40;99.90;;;;;;4976106;28;20046;-84
2022/12/20 01:16:07;;;;;;;4.60;2.40;;;11.40;99.90;;;;;;4976386;28;20034;-84
2022/12/20 01:18:34;;;;;;;6.30;2.40;;;11.40;99.90;;;;;;4976883;28;20050;-84
2022/12/20 01:21:03;;;;;;;8.48;2.47;;;11.40;99.90;;;;;;4968650;28;20513;-83
2022/12/20 01:23:30;;;;;;;4.70;2.13;;;11.40;99.90;;;;;;4968948;28;20047;-84
2022/12/20 01:25:58;;;;;;;5.25;2.40;;;11.40;99.90;;;;;;4956249;28;20059;-84
2022/12/20 01:28:26;;;;;;;8.10;2.58;;;11.40;99.90;;;;;;4967698;28;20035;-84
2022/12/20 01:30:54;;;;;;;7.13;2.58;;;11.40;99.90;;;;;;4983138;28;20050;-83
2022/12/20 01:33:21;;;;;;;4.60;2.20;;;11.40;99.90;;;;;;4969559;28;20050;-84
2022/12/20 01:35:58;;;;;;;5.63;2.53;;;11.40;99.90;;;;;;4968121;28;20069;-84
2022/12/20 01:38:25;;;;;;;4.97;2.60;;;11.50;99.90;;;;;;4967498;28;20447;-83
2022/12/20 01:40:53;;;;;;;5.22;2.33;;;11.50;99.90;;;;;;4970884;28;20051;-83
2022/12/20 01:43:21;;;;;;;5.63;2.30;;;11.50;99.90;;;;;;4971087;28;20045;-84
2022/12/20 01:45:47;;;;;;;4.28;2.25;;;11.40;99.90;;;;;;4995440;28;20061;-83
2022/12/20 01:48:18;;;;;;;5.93;2.47;;;11.50;99.90;;;;;;4972095;28;20134;-83
2022/12/20 01:50:46;;;;;;;4.28;2.45;;;11.50;99.90;;;;;;4965870;28;20042;-84
2022/12/20 01:53:13;;;;;;;5.95;2.47;;;11.50;99.90;;;;;;4973202;28;20122;-84
2022/12/20 01:55:40;;;;;;;5.18;2.17;;;11.50;99.90;;;;;;4971707;28;20089;-84
2022/12/20 01:58:09;;;;;;;7.53;2.15;;;11.50;99.90;;;;;;4983528;28;20081;-84
2022/12/20 02:00:36;;;;;;;4.38;2.35;;;11.50;99.90;;;;;;4973037;28;20473;-84
2022/12/20 02:03:06;;;;;;;7.03;2.58;;;11.50;99.90;;;;;;5007091;28;20133;-84
2022/12/20 02:05:37;;;;;;;4.55;2.40;;;11.50;99.90;;;;;;4996453;28;20047;-83
2022/12/20 02:08:05;;;;;;;6.28;2.50;;;11.50;99.90;;;;;;4972209;28;20048;-84
2022/12/20 02:10:40;;;;;;;6.20;2.60;;;11.50;99.90;;;;;;4971692;28;20443;-84
2022/12/20 02:13:10;;;;;;;6.88;2.75;;;11.50;99.90;;;;;;4987757;28;20066;-84
2022/12/20 02:15:45;;;;;;;5.20;2.28;;;11.50;99.90;;;;;;4968359;28;20102;-84
2022/12/20 02:18:21;;;;;;;5.07;2.60;;;11.50;99.90;;;;;;4972522;28;20061;-83
2022/12/20 02:21:16;;;;;;;4.63;2.42;;;11.50;99.90;;;;;;4972280;28;20066;-83
2022/12/20 02:24:09;;;;;;;5.63;2.35;;;11.50;99.90;;;;;;4963978;28;20085;-84
2022/12/20 02:26:49;;;;;;;6.88;2.90;;;11.50;99.90;;;;;;4928638;28;20547;-84
2022/12/20 02:29:23;;;;;;;7.00;2.60;;;11.50;99.90;;;;;;4963906;28;20043;-84
2022/12/20 02:31:57;;;;;;;5.28;2.90;;;11.50;99.90;;;;;;4970060;28;20058;-81
2022/12/20 02:34:26;;;;;;;7.25;3.05;;;11.50;99.90;;;;;;4971400;28;20137;-81
2022/12/20 02:36:53;;;;;;;7.38;3.30;;;11.50;99.90;;;;;;4982549;28;20054;-81
2022/12/20 02:39:20;;;;;;;7.03;3.20;;;11.50;99.90;;;;;;4992914;28;20039;-81
2022/12/20 02:41:51;;;;;;;6.75;2.78;;;11.50;99.90;;;;;;4971177;28;20038;-81
2022/12/20 02:47:10;;;;;;;8.60;3.40;;;11.40;99.90;;;;;;4981196;28;20256;-81
2022/12/20 02:49:40;;;;;;;6.68;2.92;;;11.40;99.90;;;;;;4970515;28;20058;-81
2022/12/20 02:52:09;;;;;;;7.22;3.10;;;11.50;99.90;;;;;;4967658;28;20546;-81
2022/12/20 02:54:37;;;;;;;6.38;2.90;;;11.40;99.90;;;;;;4971282;28;20153;-81
2022/12/20 02:57:08;;;;;;;5.80;2.95;;;11.40;99.90;;;;;;4969978;28;20050;-81
2022/12/20 02:59:39;;;;;;;8.13;3.53;;;11.40;99.90;;;;;;4970111;28;20061;-81
2022/12/20 03:02:08;;;;;;;6.63;3.30;;;11.40;99.90;;;;;;4976677;28;20506;-81
2022/12/20 03:04:38;;;;;;;5.05;2.88;;;11.40;99.90;;;;;;4998062;28;20129;-81
2022/12/20 03:07:07;;;;;;;5.80;3.08;;;11.40;99.90;;;;;;4975676;28;20057;-81
2022/12/20 03:09:35;;;;;;;5.90;3.00;;;11.40;99.90;;;;;;4965085;28;20731;-81
2022/12/20 03:12:03;;;;;;;7.68;3.50;;;11.30;99.90;;;;;;4970473;28;20047;-81
2022/12/20 03:14:32;;;;;;;8.27;3.30;;;11.30;99.90;;;;;;4986501;28;20418;-81
2022/12/20 03:17:01;;;;;;;6.15;3.30;;;11.40;99.90;;;;;;4970363;28;20055;-81
2022/12/20 03:19:30;;;;;;;6.22;3.50;;;11.30;99.90;;;;;;4963389;28;20035;-83
2022/12/20 03:21:58;;;;;;;7.25;3.55;;;11.40;99.90;;;;;;5004328;28;20518;-81
2022/12/20 03:24:25;;;;;;;10.45;3.70;;;11.30;99.90;;;;;;4988978;28;20078;-81
2022/12/20 03:26:53;;;;;;;7.93;3.30;;;11.30;99.90;;;;;;4963909;28;20422;-81
2022/12/20 03:29:23;;;;;;;7.53;3.88;;;11.40;99.90;;;;;;4969306;28;20038;-81
2022/12/20 03:31:50;;;;;;;9.55;4.47;;;11.30;99.90;;;;;;4969993;28;20054;-81
2022/12/20 03:34:17;;;;;;;7.80;4.15;;;11.30;99.90;;;;;;4969174;28;20073;-82
2022/12/20 03:36:45;;;;;;;6.60;3.67;;;11.20;99.90;;;;;;4998887;28;20104;-81
2022/12/20 03:39:12;;;;;;;8.43;4.10;;;11.20;99.90;;;;;;4990596;28;20042;-81
2022/12/20 03:41:41;;;;;;;9.18;3.47;;;11.30;99.90;;;;;;4969258;28;20525;-81
2022/12/20 03:44:09;;;;;;;5.85;3.70;;;11.20;99.90;;;;;;4969239;28;20121;-81
2022/12/20 03:46:36;;;;;;;6.93;3.85;;;11.20;99.90;;;;;;4969584;28;20053;-81
2022/12/20 03:49:04;;;;;;;9.38;4.13;;;11.20;99.90;;;;;;4969786;28;20049;-81
2022/12/20 03:51:33;;;;;;;8.30;3.95;;;11.20;99.90;;;;;;4977030;28;20053;-81
2022/12/20 03:54:01;;;;;;;7.38;4.03;;;11.20;99.90;;;;;;4969433;28;20134;-82
2022/12/20 03:56:46;;;;;;;9.85;4.07;;;11.20;99.90;;;;;;4960367;28;20055;-81
2022/12/20 03:59:13;;;;;;;8.63;4.00;;;11.20;99.90;;;;;;4969528;28;20038;-81
2022/12/20 04:01:40;;;;;;;6.95;3.90;;;11.20;99.90;;;;;;4955885;28;20082;-81
2022/12/20 04:04:09;;;;;;;8.45;3.95;;;11.20;99.90;;;;;;4964829;28;20059;-81
2022/12/20 04:06:36;;;;;;;7.63;3.92;;;11.20;99.90;;;;;;4968495;28;20065;-81
2022/12/20 04:09:05;;;;;;;9.98;3.88;;;11.20;99.90;;;;;;4977562;28;20043;-81
2022/12/20 04:11:39;;;;;;;8.38;3.80;;;11.20;99.90;;;;;;4978883;28;20121;-81
2022/12/20 04:14:10;;;;;;;7.90;3.55;;;11.20;99.90;;;;;;4968595;28;20059;-81
2022/12/20 04:16:37;;;;;;;11.30;3.95;;;11.20;99.90;;;;;;4970439;28;20319;-81
2022/12/20 04:19:04;;;;;;;6.70;3.50;;;11.20;99.90;;;;;;4969369;28;20137;-82
2022/12/20 04:21:36;;;;;;;6.93;3.70;;;11.20;99.90;;;;;;4968907;28;20133;-82
2022/12/20 04:24:06;;;;;;;6.50;3.28;;;11.20;99.90;;;;;;4974617;28;20046;-81
2022/12/20 04:26:41;;;;;;;9.95;4.30;;;11.20;99.90;;;;;;4981380;28;20074;-81
2022/12/20 04:29:08;;;;;;;6.07;3.55;;;11.20;99.90;;;;;;4967155;28;20580;-81
2022/12/20 04:31:36;;;;;;;8.43;3.40;;;11.20;99.90;;;;;;4969160;28;20078;-81
2022/12/20 04:34:03;;;;;;;7.57;3.42;;;11.20;99.90;;;;;;4968455;28;20533;-81
2022/12/20 04:36:31;;;;;;;6.97;3.90;;;11.20;99.90;;;;;;4982235;23;20077;-76
2022/12/20 04:39:01;;;;;;;7.82;3.85;;;11.20;99.90;;;;;;4970612;28;20484;-76
2022/12/20 04:41:35;;;;;;;7.80;3.50;;;11.20;99.90;;;;;;4979769;28;20108;-76
2022/12/20 04:44:09;;;;;;;6.30;3.78;;;11.20;99.90;;;;;;4966305;28;20053;-76
2022/12/20 04:46:37;;;;;;;8.48;3.60;;;11.20;99.90;;;;;;4967597;28;20058;-76
2022/12/20 04:49:08;;;;;;;6.65;3.78;;;11.20;99.90;;;;;;4971361;28;20446;-76
2022/12/20 04:51:38;;;;;;;8.77;3.67;;;11.10;99.90;;;;;;4964741;28;20054;-76
2022/12/20 04:54:05;;;;;;;10.10;3.53;;;11.10;99.90;;;;;;4976346;28;20082;-76
2022/12/20 04:56:40;;;;;;;5.63;3.30;;;11.20;99.90;;;;;;4968116;28;20038;-76
2022/12/20 04:59:12;;;;;;;6.60;3.50;;;11.20;99.90;;;;;;4979714;28;20053;-76
2022/12/20 05:01:42;;;;;;;6.82;3.53;;;11.20;99.90;;;;;;4966999;28;20046;-76
2022/12/20 05:04:09;;;;;;;6.88;3.65;;;11.30;99.90;;;;;;4968391;28;20511;-76
2022/12/20 05:06:37;;;;;;;8.20;3.85;;;11.20;99.90;;;;;;4981711;28;20042;-77
2022/12/20 05:09:05;;;;;;;7.40;3.60;;;11.20;99.90;;;;;;4977705;28;20834;-76
2022/12/20 05:11:33;;;;;;;8.25;3.88;;;11.20;99.90;;;;;;4974333;28;20056;-80
2022/12/20 05:14:04;;;;;;;8.48;3.70;;;11.20;99.90;;;;;;4977040;28;20516;-80
2022/12/20 05:16:31;;;;;;;6.28;3.58;;;11.20;99.90;;;;;;4981566;28;20510;-79
2022/12/20 05:18:58;;;;;;;6.68;3.67;;;11.20;99.90;;;;;;4997199;28;20081;-78
2022/12/20 05:27:15;;;;;;;6.53;3.58;;;11.20;99.90;;;;;;4989528;28;20510;-78
2022/12/20 05:29:43;;;;;;;6.95;3.63;;;11.20;99.90;;;;;;4967979;28;20125;-78
2022/12/20 05:32:10;;;;;;;6.53;3.90;;;11.20;99.90;;;;;;5003232;28;20053;-78
2022/12/20 05:34:40;;;;;;;8.50;4.07;;;11.20;99.90;;;;;;4985426;28;20061;-78
2022/12/20 05:37:07;;;;;;;8.80;3.53;;;11.20;99.90;;;;;;4975149;28;20102;-78
2022/12/20 05:39:37;;;;;;;7.20;3.70;;;11.20;99.90;;;;;;4973954;28;20065;-77
2022/12/20 05:42:09;;;;;;;7.68;4.13;;;11.20;99.90;;;;;;4970991;28;20054;-77
2022/12/20 05:44:36;;;;;;;6.90;3.90;;;11.20;99.90;;;;;;4968693;28;20054;-78
2022/12/20 05:47:05;;;;;;;14.15;3.50;;;11.20;99.90;;;;;;4979328;28;20104;-78
2022/12/20 05:49:34;;;;;;;8.15;4.03;;;11.20;99.90;;;;;;4983619;28;20138;-78
2022/12/20 05:52:06;;;;;;;7.28;3.67;;;11.20;99.90;;;;;;4974013;28;20046;-78
2022/12/20 05:54:35;;;;;;;11.50;5.95;;;11.20;99.90;;;;;;4972033;28;20058;-78
2022/12/20 05:57:10;;;;;;;12.77;7.28;;;11.20;99.90;;;;;;4974072;28;20049;-77
2022/12/20 05:59:40;;;;;;;9.45;5.32;;;11.20;99.90;;;;;;4975043;28;20042;-78
2022/12/20 06:02:16;;;;;;;9.23;4.40;;;11.20;99.90;;;;;;4980323;28;20046;-78
2022/12/20 06:04:45;;;;;;;8.10;4.28;;;11.20;99.90;;;;;;4974878;28;20058;-79
2022/12/20 06:07:17;;;;;;;;;;;11.20;99.90;;;;;;4975006;28;20510;-78
2022/12/20 06:09:47;;;;;;;7.35;3.40;;;11.20;99.90;;;;;;4966587;28;20357;-78
2022/12/20 06:12:19;;;;;;;9.88;4.10;;;11.20;99.90;;;;;;4972633;28;20138;-79
2022/12/20 06:14:47;;;;;;;6.78;3.63;;;11.20;99.90;;;;;;4966705;28;20054;-79
2022/12/20 06:17:15;;;;;;;7.60;4.28;;;11.20;99.90;;;;;;4970070;28;20052;-78
2022/12/20 06:19:46;;;;;;;8.35;3.80;;;11.20;99.90;;;;;;4985414;28;20581;-79
2022/12/20 06:22:16;;;;;;;14.55;4.75;;;11.20;99.90;;;;;;4990233;28;20137;-80
2022/12/20 06:24:47;;;;;;;;;;;11.20;99.90;;;;;;4972979;28;20565;-79
2022/12/20 06:27:14;;;;;;;6.75;3.30;;;11.20;99.90;;;;;;4972012;28;20382;-79
2022/12/20 06:29:48;;;;;;;5.82;3.45;;;11.20;99.90;;;;;;4989117;28;20076;-80
2022/12/20 06:32:16;;;;;;;8.07;3.95;;;11.20;99.90;;;;;;4978997;28;20521;-82
2022/12/20 06:34:45;;;;;;;5.95;3.25;;;11.20;99.90;;;;;;4995275;28;20057;-80
2022/12/20 06:37:15;;;;;;;7.15;3.10;;;11.20;99.90;;;;;;4973098;28;20554;-80
2022/12/20 06:39:42;;;;;;;8.35;3.85;;;11.20;99.90;;;;;;4973234;28;20097;-79
2022/12/20 06:42:10;;;;;;;7.22;4.00;;;11.20;99.90;;;;;;4974102;28;20049;-78
2022/12/20 06:44:39;;;;;;;7.55;3.30;;;11.20;99.90;;;;;;4973869;28;20484;-79
2022/12/20 06:47:06;;;;;;;7.07;3.55;;;11.20;99.90;;;;;;4970594;28;20050;-80
2022/12/20 06:49:34;;;;;;;6.40;3.33;;;11.20;99.90;;;;;;5001169;28;20043;-82
2022/12/20 06:52:06;;;;;;;7.07;3.38;;;11.20;99.90;;;;;;4973849;28;20059;-80
2022/12/20 06:54:49;;;;;;;5.57;3.38;;;11.20;99.90;;;;;;4974276;28;20054;-81
2022/12/20 06:57:16;;;;;;;6.95;3.42;;;11.30;99.90;;;;;;4973290;28;20058;-81
2022/12/20 06:59:46;;;;;;;7.45;3.30;;;11.30;99.90;;;;;;4973233;28;20053;-83
2022/12/20 07:02:13;;;;;;;7.80;3.28;;;11.30;99.90;;;;;;4994000;28;20046;-82
2022/12/20 07:04:41;;;;;;;6.65;3.20;;;11.30;99.90;;;;;;4997795;28;20042;-79
2022/12/20 07:07:08;;;;;;;7.57;3.78;;;11.30;99.90;;;;;;4990463;28;20057;-82
2022/12/20 07:09:36;;;;;;;7.22;3.20;;;11.30;99.90;;;;;;4991847;28;20124;-82
2022/12/20 07:12:04;;;;;;;8.88;3.00;;;11.30;99.90;;;;;;4992029;28;20046;-82
2022/12/20 07:14:31;;;;;;;8.13;3.40;;;11.30;99.90;;;;;;4995324;28;20054;-80
2022/12/20 07:16:57;;;;;;;5.78;3.03;;;11.30;99.90;;;;;;4993480;28;20563;-79
2022/12/20 07:19:25;;;;;;;5.93;3.30;;;11.30;99.90;;;;;;4959371;28;81376;-79
2022/12/20 07:21:53;;;;;;;6.93;3.33;;;11.30;99.90;;;;;;4959460;28;20263;-79
2022/12/20 07:24:20;;;;;;;6.32;2.85;;;11.30;99.90;;;;;;4951619;28;20463;-79
2022/12/20 07:26:47;;;;;;;8.23;3.00;;;11.30;99.90;;;;;;4941602;28;81331;-80
2022/12/20 07:29:14;;;;;;;8.65;3.35;;;11.30;99.90;;;;;;4906935;28;339105;-79
2022/12/20 07:31:41;;;;;;;7.25;3.53;;;11.30;99.90;;;;;;4943445;28;28086;-79
2022/12/20 07:34:08;;;;;;;5.57;3.00;;;11.30;99.90;;;;;;4944689;28;20051;-79
2022/12/20 07:36:35;;;;;;;6.05;2.90;;;11.30;99.90;;;;;;4949503;28;20420;-79
2022/12/20 07:39:03;;;;;;;6.85;3.20;;;11.40;99.90;;;;;;4950513;28;20051;-79
2022/12/20 07:41:30;;;;;;;7.75;3.03;;;11.40;99.90;;;;;;4949975;29;20497;-79
2022/12/20 07:43:58;;;;;;;5.28;2.83;;;11.40;99.90;;;;;;4943188;29;20049;-79
2022/12/20 07:46:25;;;;;;;5.50;2.97;;;11.40;99.90;;;;;;4951610;28;20047;-79
2022/12/20 07:48:52;;;;;;;7.97;3.03;;;11.40;99.90;;;;;;4946234;28;20130;-79
2022/12/20 07:51:21;;;;;;;8.02;2.85;;;11.40;99.90;;;;;;4939144;29;20040;-79
2022/12/20 07:53:52;;;;;;;10.77;2.97;;;11.40;99.90;;;;;;4944922;29;20051;-79
2022/12/20 07:56:21;;;;;;;8.57;3.50;;;11.40;99.90;;;;;;4951342;28;20036;-79
2022/12/20 07:58:50;;;;;;;6.10;3.10;;;11.40;99.90;;;;;;4950899;29;20074;-79
2022/12/20 08:01:18;;;;;;;5.22;2.90;;;11.40;99.90;;;;;;4951025;28;20047;-79
2022/12/20 08:03:47;;;;;;;8.00;3.22;;;11.40;99.90;;;;;;4949414;29;20085;-79
2022/12/20 08:06:15;;;;;;;7.07;2.92;;;11.40;99.90;;;;;;4948534;28;20043;-79
2022/12/20 08:08:44;;;;;;;5.60;3.10;;;11.40;99.90;;;;;;4963900;28;20055;-79
2022/12/20 08:11:12;;;;;;;6.78;3.10;;;11.40;99.90;;;;;;4947150;29;20552;-79
2022/12/20 08:13:40;;;;;;;5.93;2.78;;;11.40;99.90;;;;;;4950758;28;20126;-79
2022/12/20 08:16:07;;;;;;;8.90;3.22;;;11.40;99.90;;;;;;4948474;29;20070;-79
2022/12/20 08:18:34;;;;;;;5.57;2.60;;;11.40;99.90;;;;;;4936688;29;20039;-79
2022/12/20 08:21:01;;;;;;;5.97;3.05;;;11.40;99.90;;;;;;4950833;29;20039;-78
2022/12/20 08:23:28;;;;;;;5.90;2.97;;;11.50;99.90;;;;;;4951563;29;20053;-79
2022/12/20 08:25:55;;;;;;;7.28;3.05;;;11.50;99.90;;;;;;4949392;28;20051;-79
2022/12/20 08:28:22;;;;;;;6.80;2.45;;;11.40;99.90;;;;;;4950530;28;20479;-83
2022/12/20 08:30:51;;;;;;;7.68;2.63;;;11.40;99.90;;;;;;4950756;29;20484;-81
2022/12/20 08:33:18;;;;;;;6.13;2.92;;;11.50;99.90;;;;;;4947884;28;20047;-83
2022/12/20 08:35:45;;;;;;;7.07;2.95;;;11.50;99.90;;;;;;4948412;28;20047;-84
2022/12/20 08:38:12;;;;;;;10.20;2.85;;;11.40;99.90;;;;;;4950932;29;20563;-84
2022/12/20 08:40:39;;;;;;;5.00;2.60;;;11.50;99.90;;;;;;4949665;28;20756;-81
2022/12/20 08:43:06;;;;;;;5.95;3.03;;;11.50;99.90;;;;;;4941314;28;20055;-81
2022/12/20 08:45:33;;;;;;;5.93;2.33;;;11.50;99.90;;;;;;4945672;29;20541;-81
2022/12/20 08:48:01;;;;;;;9.07;2.70;;;11.60;99.90;;;;;;4945072;28;20062;-81
2022/12/20 08:50:28;;;;;;;4.82;2.35;;;11.60;99.90;;;;;;4948263;28;20046;-81
2022/12/20 08:52:55;;;;;;;6.75;2.60;;;11.60;99.90;;;;;;4954611;29;20082;-82
2022/12/20 08:55:22;;;;;;;6.05;3.00;;;11.60;99.90;;;;;;4952382;29;20040;-81
2022/12/20 08:57:49;;;;;;;4.60;2.50;;;11.60;99.90;;;;;;4950549;28;20415;-81
2022/12/20 09:00:16;;;;;;;5.97;2.58;;;11.60;99.90;;;;;;4955284;28;20045;-81
2022/12/20 09:02:43;;;;;;;8.00;3.08;;;11.60;99.90;;;;;;4948854;28;20137;-81
2022/12/20 09:05:11;;;;;;;6.82;2.70;;;11.70;99.90;;;;;;4951451;28;20122;-82
2022/12/20 09:07:38;;;;;;;5.95;2.40;;;11.70;99.90;;;;;;4952948;29;20057;-81
2022/12/20 09:10:07;;;;;;;6.28;2.90;;;11.70;99.90;;;;;;4957886;28;20134;-81
2022/12/20 09:12:36;;;;;;;6.43;2.50;;;11.70;99.90;;;;;;4952596;28;20097;-81
2022/12/20 09:15:03;;;;;;;6.65;2.47;;;11.70;99.90;;;;;;4952792;28;20486;-82
2022/12/20 09:17:30;;;;;;;8.98;3.17;;;11.70;99.90;;;;;;4953475;28;20538;-84
2022/12/20 09:19:57;;;;;;;8.10;2.50;;;11.70;99.90;;;;;;4951975;29;20455;-81
2022/12/20 09:22:26;;;;;;;6.60;2.33;;;11.70;99.90;;;;;;4954563;29;20039;-82
2022/12/20 09:24:52;;;;;;;5.60;2.53;;;11.70;99.90;;;;;;4948231;28;20051;-83
2022/12/20 09:27:19;;;;;;;5.95;2.30;;;11.70;99.90;;;;;;4949595;28;20127;-82
2022/12/20 09:29:46;;;;;;;5.35;2.63;;;11.80;99.90;;;;;;4953663;29;20046;-79
2022/12/20 09:32:13;;;;;;;7.70;2.90;;;11.80;99.90;;;;;;4953283;28;20043;-80
2022/12/20 09:34:40;;;;;;;5.80;3.00;;;11.80;99.90;;;;;;4947121;28;21356;-81
2022/12/20 09:37:07;;;;;;;8.50;3.22;;;11.80;99.90;;;;;;4951183;29;20129;-81
2022/12/20 09:39:36;;;;;;;8.07;2.88;;;11.80;99.90;;;;;;4951262;29;20043;-81
2022/12/20 09:42:08;;;;;;;6.45;2.80;;;11.80;99.90;;;;;;4949493;28;20317;-81
2022/12/20 09:44:38;;;;;;;5.63;2.55;;;11.80;99.90;;;;;;4950340;28;20058;-81
2022/12/20 09:47:07;;;;;;;6.95;2.80;;;11.80;99.90;;;;;;4952499;29;20815;-81
2022/12/20 09:49:36;;;;;;;5.90;2.47;;;11.80;99.90;;;;;;4953797;28;20130;-81
2022/12/20 09:52:34;;;;;;;4.90;2.60;;;11.80;99.90;;;;;;4953438;28;20074;-81
2022/12/20 09:55:12;;;;;;;6.65;2.92;;;11.80;99.90;;;;;;4951442;28;20054;-81
2022/12/20 09:57:51;;;;;;;8.07;2.65;;;11.80;99.90;;;;;;4947098;28;20059;-81
2022/12/20 10:00:20;;;;;;;6.10;2.97;;;11.90;99.90;;;;;;4950888;28;20057;-81
2022/12/20 10:02:47;;;;;;;7.53;2.47;;;11.90;99.90;;;;;;4948756;28;20047;-82
2022/12/20 10:05:16;;;;;;;8.55;2.65;;;11.90;99.90;;;;;;4951881;28;20057;-81
2022/12/20 10:07:49;;;;;;;5.80;3.00;;;11.90;99.90;;;;;;4950865;29;20058;-81
2022/12/20 10:10:47;;;;;;;8.82;3.00;;;11.90;99.90;;;;;;4947101;29;20039;-81
2022/12/20 10:13:23;;;;;;;6.68;2.78;;;11.90;99.90;;;;;;4944918;28;20082;-81
2022/12/20 10:15:53;;;;;;;6.68;2.58;;;11.90;99.90;;;;;;4950339;28;20057;-81
2022/12/20 10:18:30;;;;;;;7.90;2.70;;;11.90;99.90;;;;;;4946616;29;20043;-81
2022/12/20 10:20:59;;;;;;;6.57;2.85;;;11.90;99.90;;;;;;4942940;29;20045;-81
2022/12/20 10:23:30;;;;;;;5.85;2.75;;;11.90;99.90;;;;;;4953432;28;20389;-81
2022/12/20 10:25:59;;;;;;;6.47;2.80;;;11.90;99.90;;;;;;4949527;28;20377;-81
2022/12/20 10:28:29;;;;;;;9.07;2.65;;;11.90;99.90;;;;;;4949083;28;20039;-81
2022/12/20 10:30:59;;;;;;;6.10;2.65;;;11.90;99.90;;;;;;4951780;28;20047;-81
2022/12/20 10:33:27;;;;;;;6.00;2.97;;;12.00;99.90;;;;;;4951468;28;20064;-81
2022/12/20 10:35:54;;;;;;;7.55;2.60;;;12.00;99.90;;;;;;4965486;23;20062;-88
2022/12/20 10:38:22;;;;;;;5.45;2.58;;;12.00;99.90;;;;;;4938661;28;20049;-88
2022/12/20 10:41:01;;;;;;;5.80;2.55;;;12.00;99.90;;;;;;4951017;28;20062;-87
2022/12/20 10:43:37;;;;;;;4.88;2.50;;;12.00;99.90;;;;;;4953127;28;20051;-88
2022/12/20 10:46:06;;;;;;;6.70;2.72;;;12.00;99.90;;;;;;4952546;28;20058;-88
2022/12/20 10:48:35;;;;;;;6.72;2.47;;;12.00;99.90;;;;;;4951260;28;20039;-89
2022/12/20 10:51:04;;;;;;;6.22;2.30;;;12.10;99.90;;;;;;4948130;28;20044;-87
2022/12/20 10:53:31;;;;;;;6.15;2.60;;;12.10;99.90;;;;;;4950251;28;20043;-89
2022/12/20 10:56:19;;;;;;;5.43;2.50;;;12.00;99.90;;;;;;4952443;28;20050;-89
2022/12/20 10:58:53;;;;;;;6.55;2.42;;;12.10;99.90;;;;;;4947785;28;20070;-89
2022/12/20 11:01:22;;;;;;;6.82;2.70;;;12.10;99.90;;;;;;4949119;28;20054;-89
2022/12/20 11:03:58;;;;;;;5.43;2.65;;;12.10;99.90;;;;;;4948128;29;20090;-89
2022/12/20 11:06:27;;;;;;;5.13;2.60;;;12.10;99.90;;;;;;4949217;28;20065;-89
2022/12/20 11:08:54;;;;;;;6.88;2.97;;;12.10;99.90;;;;;;4965420;28;20070;-88
2022/12/20 11:11:25;;;;;;;6.60;2.40;;;12.10;99.90;;;;;;4948566;28;20046;-89
2022/12/20 11:13:52;;;;;;;6.38;2.30;;;12.10;99.90;;;;;;4945768;29;20049;-89
2022/12/20 11:16:26;;;;;;;6.57;2.80;;;12.20;99.90;;;;;;4949285;28;20043;-89
2022/12/20 11:19:00;;;;;;;6.93;2.67;;;12.20;99.90;;;;;;4955464;28;20051;-89
2022/12/20 11:21:32;;;;;;;8.60;2.42;;;12.20;99.90;;;;;;4949698;28;20050;-89
2022/12/20 11:24:05;;;;;;;4.90;2.25;;;12.20;99.90;;;;;;4950522;28;20047;-88
2022/12/20 11:26:45;;;;;;;5.70;2.38;;;12.20;99.90;;;;;;4951084;28;20054;-89
2022/12/20 11:29:23;;;;;;;6.35;2.60;;;12.20;99.90;;;;;;4951664;28;20234;-89
2022/12/20 11:31:57;;;;;;;5.43;2.03;;;12.30;99.90;;;;;;4950953;28;20039;-89
2022/12/20 11:34:36;;;;;;;5.05;2.20;;;12.30;99.90;;;;;;4948319;28;20043;-90
2022/12/20 11:37:11;;;;;;;5.60;1.95;;;12.30;99.90;;;;;;4943487;28;20050;-90
2022/12/20 11:39:45;;;;;;;7.13;2.35;;;12.30;99.90;;;;;;4954315;28;20059;-89
2022/12/20 11:42:17;;;;;;;6.40;2.20;;;12.30;99.90;;;;;;4949713;28;20555;-90
2022/12/20 11:44:54;;;;;;;6.75;2.25;;;12.30;99.90;;;;;;4942887;28;20464;-89
2022/12/20 11:47:59;;;;;;;5.25;2.25;;;12.30;99.90;;;;;;4946902;28;20036;-89
2022/12/20 11:50:59;;;;;;;5.78;2.10;;;12.30;99.90;;;;;;4942513;28;20043;-89
2022/12/20 11:53:31;;;;;;;4.68;2.50;;;12.30;99.90;;;;;;4942659;28;20057;-90
2022/12/20 11:56:02;;;;;;;7.32;2.40;;;12.30;99.90;;;;;;4961223;28;20086;-89
2022/12/20 11:58:34;;;;;;;4.25;2.30;;;12.30;99.90;;;;;;4948706;28;20047;-89
2022/12/20 12:01:05;;;;;;;5.28;2.22;;;12.30;99.90;;;;;;4959469;28;20526;-88
2022/12/20 12:03:35;;;;;;;5.82;2.53;;;12.30;99.90;;;;;;4951807;28;20051;-89
2022/12/20 12:06:05;;;;;;;5.95;2.30;;;12.30;99.90;;;;;;4944182;28;20061;-89
2022/12/20 12:08:40;;;;;;;4.03;2.08;;;12.30;99.90;;;;;;4942871;28;20053;-88
2022/12/20 12:11:15;;;;;;;4.20;2.40;;;12.30;99.90;;;;;;4950033;29;20484;-90
2022/12/20 12:13:46;;;;;;;3.90;2.10;;;12.30;99.90;;;;;;4941576;29;20043;-89
2022/12/20 12:16:18;;;;;;;7.70;2.28;;;12.30;99.90;;;;;;4944755;28;20042;-89
2022/12/20 12:18:45;;;;;;;6.18;2.35;;;12.30;99.90;;;;;;4943363;28;20508;-89
2022/12/20 12:21:19;;;;;;;6.97;2.88;;;12.40;99.90;;;;;;4951417;29;20075;-89
2022/12/20 12:23:53;;;;;;;4.05;2.00;;;12.40;99.90;;;;;;4943413;28;20039;-90
2022/12/20 12:26:23;;;;;;;5.00;2.38;;;12.40;99.90;;;;;;4946892;28;20055;-88
2022/12/20 12:28:55;;;;;;;6.60;2.42;;;12.40;99.90;;;;;;4945184;28;20035;-89
2022/12/20 12:31:26;;;;;;;5.15;2.40;;;12.50;99.90;;;;;;4951577;28;20411;-91
2022/12/20 12:33:55;;;;;;;;;;;12.40;99.90;;;;;;4950407;29;20051;-91
2022/12/20 12:36:38;;;;;;;4.88;2.83;;;12.50;99.90;;;;;;4949448;28;19932;-91
2022/12/20 12:39:28;;;;;;;8.30;3.60;;;12.40;99.90;;;;;;4946944;28;20078;-89
2022/12/20 12:42:24;;;;;;;11.68;4.20;;;12.40;99.90;;;;;;4945422;29;20126;-90
2022/12/20 12:44:55;;;;;;;7.97;3.92;;;12.40;99.90;;;;;;4949705;28;20692;-90
2022/12/20 12:47:25;;;;;;;7.20;3.45;;;12.40;99.90;;;;;;4949693;29;20058;-91
2022/12/20 12:49:53;;;;;;;7.35;3.30;;;12.40;99.90;;;;;;4950555;28;20051;-91
2022/12/20 12:52:41;;;;;;;6.50;3.35;;;12.50;99.90;;;;;;4949528;28;20066;-90
2022/12/20 12:55:36;;;;;;;6.60;2.83;;;12.50;99.90;;;;;;4963527;28;20058;-91
2022/12/20 12:58:37;;;;;;;7.65;3.10;;;12.50;99.90;;;;;;4950925;28;20085;-90
2022/12/20 13:01:09;;;;;;;5.70;2.85;;;12.40;99.90;;;;;;4949968;28;20067;-90
2022/12/20 13:03:40;;;;;;;6.97;2.72;;;12.50;99.90;;;;;;4948057;29;20067;-86
2022/12/20 13:06:58;;;;;;;10.32;3.40;;;12.60;99.90;;;;;;4949889;28;20039;-87
2022/12/20 13:09:44;;;;;;;8.23;3.25;;;12.40;99.90;;;;;;4905851;29;20103;-88
2022/12/20 13:12:50;;;;;;;5.55;2.70;;;12.40;99.90;;;;;;4908552;29;20312;-85
2022/12/20 13:15:59;;;;;;;9.23;3.03;;;12.40;99.90;;;;;;4938289;28;20051;-86